createdAt,value
2022-07-30T00:00:33.791Z,99.90
2022-07-30T00:03:01.099Z,99.90
2022-07-30T00:05:28.542Z,99.90
2022-07-30T00:07:55.942Z,99.90
2022-07-30T00:10:23.469Z,99.90
2022-07-30T00:12:51.417Z,99.90
2022-07-30T00:15:18.846Z,99.90
2022-07-30T00:17:46.834Z,99.90
2022-07-30T00:20:16.534Z,99.90
2022-07-30T00:22:45.039Z,99.90
2022-07-30T00:25:12.435Z,99.90
2022-07-30T00:27:40.020Z,99.90
2022-07-30T00:30:08.054Z,99.90
2022-07-30T00:32:35.520Z,99.90
2022-07-30T00:35:03.035Z,99.90
2022-07-30T00:37:30.371Z,99.90
2022-07-30T00:39:57.829Z,99.90
2022-07-30T00:42:36.698Z,99.90
2022-07-30T00:45:04.475Z,99.90
2022-07-30T00:47:32.078Z,99.90
2022-07-30T00:49:59.401Z,99.90
2022-07-30T00:52:27.103Z,99.90
2022-07-30T00:54:54.421Z,99.90
2022-07-30T00:57:21.825Z,99.90
2022-07-30T00:59:49.219Z,99.90
2022-07-30T01:02:16.659Z,99.90
2022-07-30T01:04:45.176Z,99.90
2022-07-30T01:07:12.591Z,99.90
2022-07-30T01:09:40.410Z,99.90
2022-07-30T01:12:20.884Z,99.90
2022-07-30T01:14:49.448Z,99.90
2022-07-30T01:17:17.132Z,99.90
2022-07-30T01:19:48.950Z,99.90
2022-07-30T01:22:31.427Z,99.90
2022-07-30T01:25:08.082Z,99.90
2022-07-30T01:27:45.986Z,99.90
2022-07-30T01:30:16.338Z,99.90
2022-07-30T01:32:47.104Z,99.90
2022-07-30T01:35:16.200Z,99.90
2022-07-30T01:37:45.412Z,99.90
2022-07-30T01:40:15.073Z,99.90
2022-07-30T01:42:45.324Z,99.90
2022-07-30T01:45:14.191Z,99.90
2022-07-30T01:47:44.060Z,99.90
2022-07-30T01:50:14.647Z,99.90
2022-07-30T01:52:46.110Z,99.90
2022-07-30T01:55:22.145Z,99.90
2022-07-30T01:57:50.499Z,99.90
2022-07-30T02:00:18.260Z,99.90
2022-07-30T02:02:46.233Z,99.90
2022-07-30T02:05:14.118Z,99.90
2022-07-30T02:07:53.129Z,99.90
2022-07-30T02:10:31.438Z,99.90
2022-07-30T02:13:02.059Z,99.90
2022-07-30T02:15:35.304Z,99.90
2022-07-30T02:18:17.205Z,99.90
2022-07-30T02:21:07.470Z,99.90
2022-07-30T02:23:42.090Z,99.90
2022-07-30T02:26:13.192Z,99.90
2022-07-30T02:28:42.912Z,99.90
2022-07-30T02:31:17.483Z,99.90
2022-07-30T02:33:49.875Z,99.90
2022-07-30T02:36:19.368Z,99.90
2022-07-30T02:38:47.993Z,99.90
2022-07-30T02:41:16.722Z,99.90
2022-07-30T02:43:44.275Z,99.90
2022-07-30T02:46:13.300Z,99.90
2022-07-30T02:48:41.873Z,99.90
2022-07-30T02:51:10.474Z,99.90
2022-07-30T02:53:38.781Z,99.90
2022-07-30T02:56:08.276Z,99.90
2022-07-30T02:58:39.390Z,99.90
2022-07-30T03:01:09.301Z,99.90
2022-07-30T03:03:40.762Z,99.90
2022-07-30T03:06:09.378Z,99.90
2022-07-30T03:08:37.854Z,99.90
2022-07-30T03:11:06.949Z,99.90
2022-07-30T03:13:34.416Z,99.90
2022-07-30T03:16:03.607Z,99.90
2022-07-30T03:18:36.386Z,99.90
2022-07-30T03:21:05.217Z,99.90
2022-07-30T03:23:35.217Z,99.90
2022-07-30T03:26:04.070Z,99.90
2022-07-30T03:28:34.393Z,99.90
2022-07-30T03:31:02.318Z,99.90
2022-07-30T03:33:38.672Z,99.90
2022-07-30T03:36:08.794Z,99.90
2022-07-30T03:38:41.311Z,99.90
2022-07-30T03:41:10.472Z,99.90
2022-07-30T03:43:40.171Z,99.90
2022-07-30T03:46:09.808Z,99.90
2022-07-30T03:48:38.876Z,99.90
2022-07-30T03:51:10.454Z,99.90
2022-07-30T03:53:38.198Z,99.90
2022-07-30T03:56:05.870Z,99.90
2022-07-30T03:58:35.974Z,99.90
2022-07-30T04:01:03.792Z,99.90
2022-07-30T04:03:33.774Z,99.90
2022-07-30T04:06:02.214Z,99.90
2022-07-30T04:08:29.972Z,99.90
2022-07-30T04:10:57.468Z,99.90
2022-07-30T04:13:24.870Z,99.90
2022-07-30T04:16:40.510Z,99.90
2022-07-30T04:18:56.562Z,99.90
2022-07-30T04:21:26.182Z,99.90
2022-07-30T04:24:03.599Z,99.90
2022-07-30T04:26:33.748Z,99.90
2022-07-30T04:29:02.537Z,99.90
2022-07-30T04:31:38.431Z,99.90
2022-07-30T04:34:08.649Z,99.90
2022-07-30T04:36:36.208Z,99.90
2022-07-30T04:39:04.371Z,99.90
2022-07-30T04:41:44.476Z,99.90
2022-07-30T04:44:18.593Z,99.90
2022-07-30T04:46:46.873Z,99.90
2022-07-30T04:49:16.431Z,99.90
2022-07-30T04:51:45.278Z,99.90
2022-07-30T04:54:16.035Z,99.90
2022-07-30T04:57:00.902Z,99.90
2022-07-30T04:59:28.679Z,99.90
2022-07-30T05:01:59.170Z,99.90
2022-07-30T05:04:28.369Z,99.90
2022-07-30T05:06:57.451Z,99.90
2022-07-30T05:09:25.533Z,99.90
2022-07-30T05:11:54.542Z,99.90
2022-07-30T05:14:23.449Z,99.90
2022-07-30T05:16:51.329Z,99.90
2022-07-30T05:19:22.851Z,99.90
2022-07-30T05:21:50.400Z,99.90
2022-07-30T05:24:17.801Z,99.90
2022-07-30T05:26:45.648Z,99.90
2022-07-30T05:29:19.326Z,99.90
2022-07-30T05:31:47.945Z,99.90
2022-07-30T05:34:15.458Z,99.90
2022-07-30T05:36:44.821Z,99.90
2022-07-30T05:39:12.326Z,99.90
2022-07-30T05:41:39.773Z,99.90
2022-07-30T05:44:07.519Z,99.90
2022-07-30T05:46:34.981Z,99.90
2022-07-30T05:49:02.481Z,99.90
2022-07-30T05:51:29.880Z,99.90
2022-07-30T05:53:57.182Z,99.90
2022-07-30T05:56:24.591Z,99.90
2022-07-30T05:58:51.895Z,99.90
2022-07-30T06:01:19.274Z,99.90
2022-07-30T06:03:46.679Z,99.90
2022-07-30T06:06:13.989Z,99.90
2022-07-30T06:08:41.314Z,99.90
2022-07-30T06:11:09.314Z,99.90
2022-07-30T06:13:38.398Z,99.90
2022-07-30T06:16:06.064Z,99.90
2022-07-30T06:18:33.478Z,99.90
2022-07-30T06:21:00.804Z,99.90
2022-07-30T06:23:28.230Z,98.40
2022-07-30T06:25:55.708Z,98.50
2022-07-30T06:28:39.579Z,99.20
2022-07-30T06:31:07.900Z,98.00
2022-07-30T06:33:35.538Z,98.10
2022-07-30T06:36:02.985Z,98.00
2022-07-30T06:38:30.499Z,97.40
2022-07-30T06:41:02.381Z,96.70
2022-07-30T06:43:30.374Z,96.70
2022-07-30T06:45:57.772Z,96.50
2022-07-30T06:48:25.243Z,96.20
2022-07-30T06:50:52.541Z,95.80
2022-07-30T06:53:19.868Z,96.20
2022-07-30T06:55:47.214Z,96.20
2022-07-30T06:58:14.521Z,95.70
2022-07-30T07:00:43.251Z,96.40
2022-07-30T07:03:11.921Z,95.30
2022-07-30T07:05:40.679Z,94.00
2022-07-30T07:08:07.965Z,94.40
2022-07-30T07:10:35.393Z,93.10
2022-07-30T07:13:02.756Z,92.70
2022-07-30T07:15:36.502Z,92.90
2022-07-30T07:18:05.284Z,93.50
2022-07-30T07:20:33.224Z,92.70
2022-07-30T07:23:05.234Z,91.80
2022-07-30T07:25:36.602Z,92.10
2022-07-30T07:28:11.169Z,92.40
2022-07-30T07:30:41.693Z,92.30
2022-07-30T07:33:10.162Z,92.20
2022-07-30T07:35:41.082Z,92.60
2022-07-30T07:38:17.879Z,92.20
2022-07-30T07:40:45.347Z,91.40
2022-07-30T07:43:12.653Z,90.40
2022-07-30T07:45:40.081Z,90.60
2022-07-30T07:48:07.842Z,90.70
2022-07-30T07:50:35.467Z,91.30
2022-07-30T07:53:02.749Z,87.70
2022-07-30T07:55:31.644Z,86.60
2022-07-30T07:58:00.597Z,82.90
2022-07-30T08:00:28.105Z,83.40
2022-07-30T08:02:55.497Z,84.20
2022-07-30T08:05:24.213Z,84.30
2022-07-30T08:07:51.747Z,87.80
2022-07-30T08:10:19.308Z,87.90
2022-07-30T08:12:46.733Z,90.60
2022-07-30T08:15:16.228Z,86.20
2022-07-30T08:17:47.679Z,86.90
2022-07-30T08:20:16.972Z,85.00
2022-07-30T08:22:44.454Z,84.10
2022-07-30T08:25:11.934Z,83.60
2022-07-30T08:27:52.619Z,84.00
2022-07-30T08:30:20.814Z,81.40
2022-07-30T08:32:48.253Z,83.80
2022-07-30T08:35:15.677Z,83.60
2022-07-30T08:37:43.218Z,84.10
2022-07-30T08:40:11.300Z,82.80
2022-07-30T08:42:39.076Z,83.30
2022-07-30T08:45:08.257Z,83.20
2022-07-30T08:47:37.019Z,83.00
2022-07-30T08:50:07.254Z,82.60
2022-07-30T08:52:37.577Z,84.50
2022-07-30T08:55:06.082Z,84.20
2022-07-30T08:57:35.512Z,86.50
2022-07-30T09:00:05.157Z,81.80
2022-07-30T09:02:33.312Z,81.60
2022-07-30T09:05:00.732Z,82.50
2022-07-30T09:07:28.597Z,83.60
2022-07-30T09:09:58.097Z,82.30
2022-07-30T09:12:45.077Z,84.40
2022-07-30T09:15:18.495Z,82.70
2022-07-30T09:18:15.037Z,84.90
2022-07-30T09:20:42.377Z,80.30
2022-07-30T09:23:10.276Z,81.10
2022-07-30T09:25:41.112Z,80.20
2022-07-30T09:28:16.051Z,84.50
2022-07-30T09:30:52.476Z,77.20
2022-07-30T09:33:40.337Z,78.50
2022-07-30T09:36:10.657Z,79.10
2022-07-30T09:38:54.634Z,81.10
2022-07-30T09:41:39.191Z,82.30
2022-07-30T09:44:07.933Z,83.40
2022-07-30T09:46:45.278Z,82.50
2022-07-30T09:49:26.747Z,83.90
2022-07-30T09:51:57.569Z,83.10
2022-07-30T09:54:52.781Z,81.30
2022-07-30T09:57:25.726Z,80.40
2022-07-30T09:59:57.035Z,76.70
2022-07-30T10:02:34.168Z,78.10
2022-07-30T10:05:15.427Z,78.80
2022-07-30T10:08:01.837Z,78.80
2022-07-30T10:10:32.035Z,76.30
2022-07-30T10:13:04.598Z,80.80
2022-07-30T10:15:35.117Z,78.20
2022-07-30T10:18:06.302Z,76.70
2022-07-30T10:20:35.421Z,77.70
2022-07-30T10:23:08.755Z,80.30
2022-07-30T10:25:49.282Z,76.10
2022-07-30T10:28:24.571Z,75.10
2022-07-30T10:30:56.899Z,74.20
2022-07-30T10:33:36.382Z,73.60
2022-07-30T10:36:10.765Z,75.50
2022-07-30T10:38:41.864Z,76.10
2022-07-30T10:41:47.709Z,70.20
2022-07-30T10:44:27.457Z,69.20
2022-07-30T10:47:07.701Z,69.90
2022-07-30T10:49:41.235Z,69.10
2022-07-30T10:52:12.148Z,74.20
2022-07-30T10:54:45.194Z,73.20
2022-07-30T10:57:26.587Z,73.10
2022-07-30T11:00:00.831Z,69.20
2022-07-30T11:02:30.634Z,70.10
2022-07-30T11:05:45.108Z,63.80
2022-07-30T11:08:36.365Z,66.50
2022-07-30T11:11:16.132Z,67.80
2022-07-30T11:13:52.461Z,67.40
2022-07-30T11:16:23.772Z,66.40
2022-07-30T11:19:56.366Z,65.20
2022-07-30T11:22:32.921Z,65.10
2022-07-30T11:25:00.610Z,62.50
2022-07-30T11:27:49.153Z,64.80
2022-07-30T11:30:17.126Z,67.30
2022-07-30T11:32:48.323Z,63.90
2022-07-30T11:35:34.426Z,66.10
2022-07-30T11:38:22.237Z,62.70
2022-07-30T11:40:49.824Z,61.00
2022-07-30T11:43:35.595Z,61.60
2022-07-30T11:46:29.267Z,58.80
2022-07-30T11:48:58.444Z,60.80
2022-07-30T11:51:26.775Z,57.40
2022-07-30T11:54:20.412Z,57.80
2022-07-30T11:57:00.830Z,55.60
2022-07-30T11:59:31.211Z,54.30
2022-07-30T12:02:02.177Z,55.50
2022-07-30T12:04:30.698Z,58.40
2022-07-30T12:06:58.093Z,57.60
2022-07-30T12:09:29.891Z,59.80
2022-07-30T12:11:58.279Z,60.60
2022-07-30T12:14:25.895Z,62.10
2022-07-30T12:16:54.553Z,62.70
2022-07-30T12:19:22.112Z,67.20
2022-07-30T12:21:53.251Z,61.50
2022-07-30T12:24:26.233Z,59.40
2022-07-30T12:27:04.356Z,60.50
2022-07-30T12:29:32.792Z,63.30
2022-07-30T12:32:00.716Z,58.00
2022-07-30T12:34:28.440Z,58.00
2022-07-30T12:36:55.992Z,55.30
2022-07-30T12:39:26.077Z,54.40
2022-07-30T12:41:58.497Z,54.30
2022-07-30T12:44:39.474Z,55.20
2022-07-30T12:47:19.451Z,54.20
2022-07-30T12:49:49.578Z,54.70
2022-07-30T12:52:31.368Z,53.50
2022-07-30T12:55:10.991Z,54.30
2022-07-30T12:57:54.731Z,53.50
2022-07-30T13:00:24.099Z,52.10
2022-07-30T13:02:51.780Z,52.90
2022-07-30T13:05:19.211Z,55.00
2022-07-30T13:07:57.931Z,55.60
2022-07-30T13:10:31.524Z,56.70
2022-07-30T13:13:03.420Z,58.20
2022-07-30T13:15:31.113Z,56.00
2022-07-30T13:17:58.468Z,56.20
2022-07-30T13:20:26.048Z,57.30
2022-07-30T13:22:53.472Z,60.00
2022-07-30T13:25:20.816Z,61.60
2022-07-30T13:27:48.633Z,61.80
2022-07-30T13:30:16.097Z,61.20
2022-07-30T13:32:43.406Z,62.50
2022-07-30T13:35:10.810Z,62.20
2022-07-30T13:37:38.835Z,63.20
2022-07-30T13:40:07.494Z,62.90
2022-07-30T13:42:35.236Z,62.90
2022-07-30T13:45:02.674Z,62.20
2022-07-30T13:47:29.995Z,63.60
2022-07-30T13:49:57.456Z,62.70
2022-07-30T13:52:24.823Z,62.40
2022-07-30T13:54:53.932Z,63.80
2022-07-30T13:57:21.372Z,63.40
2022-07-30T13:59:48.804Z,64.00
2022-07-30T14:02:16.143Z,61.70
2022-07-30T14:04:43.472Z,62.20
2022-07-30T14:07:10.927Z,59.00
2022-07-30T14:09:44.992Z,61.20
2022-07-30T14:12:15.456Z,60.40
2022-07-30T14:14:42.857Z,60.80
2022-07-30T14:17:10.376Z,60.20
2022-07-30T14:19:37.781Z,61.10
2022-07-30T14:22:05.160Z,62.30
2022-07-30T14:24:32.613Z,61.60
2022-07-30T14:27:00.391Z,61.70
2022-07-30T14:29:28.336Z,57.70
2022-07-30T14:31:56.161Z,57.90
2022-07-30T14:34:23.876Z,53.00
2022-07-30T14:36:51.196Z,53.10
2022-07-30T14:39:18.616Z,49.10
2022-07-30T14:41:46.332Z,50.10
2022-07-30T14:44:14.881Z,48.30
2022-07-30T14:46:52.431Z,51.10
2022-07-30T14:49:22.606Z,51.80
2022-07-30T14:51:50.391Z,52.60
2022-07-30T14:54:17.719Z,54.60
2022-07-30T14:56:45.216Z,55.10
2022-07-30T14:59:12.893Z,58.50
2022-07-30T15:01:42.084Z,54.40
2022-07-30T15:04:12.762Z,56.10
2022-07-30T15:06:44.211Z,58.50
2022-07-30T15:09:14.949Z,60.70
2022-07-30T15:12:07.972Z,57.00
2022-07-30T15:14:29.920Z,58.90
2022-07-30T15:17:03.448Z,60.50
2022-07-30T15:19:31.260Z,54.30
2022-07-30T15:21:59.479Z,54.00
2022-07-30T15:24:26.975Z,51.70
2022-07-30T15:26:56.631Z,51.20
2022-07-30T15:29:24.668Z,50.20
2022-07-30T15:31:52.387Z,49.60
2022-07-30T15:34:19.796Z,51.00
2022-07-30T15:36:47.212Z,49.10
2022-07-30T15:39:15.542Z,49.10
2022-07-30T15:41:43.195Z,47.90
2022-07-30T15:44:10.645Z,47.70
2022-07-30T15:46:38.179Z,49.90
2022-07-30T15:49:05.624Z,49.20
2022-07-30T15:51:33.099Z,48.40
2022-07-30T15:54:02.077Z,49.10
2022-07-30T15:56:31.395Z,49.00
2022-07-30T15:58:58.962Z,49.40
2022-07-30T16:01:26.526Z,48.10
2022-07-30T16:03:55.004Z,47.30
2022-07-30T16:06:23.424Z,48.10
2022-07-30T16:08:50.997Z,47.10
2022-07-30T16:11:18.381Z,47.80
2022-07-30T16:13:46.391Z,47.10
2022-07-30T16:16:13.871Z,48.30
2022-07-30T16:18:41.316Z,48.00
2022-07-30T16:21:08.876Z,47.50
2022-07-30T16:23:37.005Z,49.10
2022-07-30T16:26:07.404Z,48.40
2022-07-30T16:28:34.832Z,50.30
2022-07-30T16:31:02.289Z,50.20
2022-07-30T16:33:29.717Z,47.50
2022-07-30T16:35:57.179Z,48.70
2022-07-30T16:38:24.687Z,48.90
2022-07-30T16:40:52.320Z,47.40
2022-07-30T16:43:20.370Z,48.80
2022-07-30T16:45:48.396Z,48.50
2022-07-30T16:48:15.858Z,47.80
2022-07-30T16:50:43.639Z,49.20
2022-07-30T16:53:14.250Z,48.20
2022-07-30T16:55:43.127Z,48.70
2022-07-30T16:58:11.653Z,51.30
2022-07-30T17:00:39.955Z,51.50
2022-07-30T17:03:07.758Z,52.90
2022-07-30T17:05:35.692Z,53.00
2022-07-30T17:08:06.555Z,53.00
2022-07-30T17:10:37.023Z,54.90
2022-07-30T17:13:04.477Z,54.80
2022-07-30T17:15:33.137Z,56.50
2022-07-30T17:18:01.741Z,58.40
2022-07-30T17:20:30.377Z,59.20
2022-07-30T17:22:58.238Z,61.20
2022-07-30T17:25:27.750Z,62.70
2022-07-30T17:27:59.796Z,63.60
2022-07-30T17:30:28.377Z,64.70
2022-07-30T17:32:55.973Z,65.60
2022-07-30T17:35:24.974Z,65.10
2022-07-30T17:37:52.540Z,67.70
2022-07-30T17:40:28.621Z,67.00
2022-07-30T17:43:04.239Z,67.70
2022-07-30T17:45:33.250Z,68.80
2022-07-30T17:48:01.990Z,69.40
2022-07-30T17:50:30.632Z,68.40
2022-07-30T17:52:58.067Z,69.00
2022-07-30T17:55:26.141Z,70.20
2022-07-30T17:57:53.505Z,71.90
2022-07-30T18:00:21.956Z,71.40
2022-07-30T18:02:49.480Z,72.50
2022-07-30T18:05:16.840Z,73.30
2022-07-30T18:07:45.037Z,73.70
2022-07-30T18:10:13.156Z,73.50
2022-07-30T18:12:48.625Z,75.30
2022-07-30T18:15:18.177Z,75.70
2022-07-30T18:17:45.998Z,76.50
2022-07-30T18:20:14.154Z,77.20
2022-07-30T18:22:41.752Z,78.20
2022-07-30T18:25:19.255Z,78.90
2022-07-30T18:27:47.991Z,79.20
2022-07-30T18:30:16.047Z,79.40
2022-07-30T18:32:44.292Z,79.60
2022-07-30T18:35:14.793Z,80.70
2022-07-30T18:37:43.991Z,81.20
2022-07-30T18:40:13.157Z,80.10
2022-07-30T18:42:41.101Z,80.60
2022-07-30T18:45:10.545Z,79.60
2022-07-30T18:47:37.913Z,80.50
2022-07-30T18:50:05.877Z,81.70
2022-07-30T18:52:33.797Z,81.70
2022-07-30T18:55:01.133Z,82.20
2022-07-30T18:57:28.619Z,82.60
2022-07-30T18:59:56.058Z,83.20
2022-07-30T19:02:25.908Z,83.70
2022-07-30T19:04:54.366Z,83.50
2022-07-30T19:07:23.774Z,84.40
2022-07-30T19:09:55.636Z,84.60
2022-07-30T19:12:23.355Z,84.90
2022-07-30T19:14:50.694Z,85.80
2022-07-30T19:17:18.055Z,86.10
2022-07-30T19:19:45.527Z,86.40
2022-07-30T19:22:13.067Z,86.90
2022-07-30T19:24:40.513Z,87.10
2022-07-30T19:27:12.313Z,87.60
2022-07-30T19:29:42.404Z,88.30
2022-07-30T19:32:10.053Z,88.80
2022-07-30T19:34:37.757Z,89.00
2022-07-30T19:37:05.294Z,89.40
2022-07-30T19:39:35.089Z,89.70
2022-07-30T19:42:03.134Z,90.10
2022-07-30T19:44:31.579Z,90.10
2022-07-30T19:46:59.901Z,90.40
2022-07-30T19:49:29.473Z,90.50
2022-07-30T19:52:23.442Z,90.60
2022-07-30T19:54:52.798Z,90.90
2022-07-30T19:57:20.649Z,91.10
2022-07-30T20:02:35.994Z,91.50
2022-07-30T20:05:05.984Z,91.60
2022-07-30T20:07:33.620Z,92.30
2022-07-30T20:10:03.046Z,92.50
2022-07-30T20:12:30.413Z,92.80
2022-07-30T20:14:58.156Z,93.10
2022-07-30T20:17:27.354Z,93.50
2022-07-30T20:19:56.077Z,93.60
2022-07-30T20:22:27.641Z,93.90
2022-07-30T20:24:55.840Z,94.30
2022-07-30T20:27:37.113Z,94.70
2022-07-30T20:30:08.032Z,95.20
2022-07-30T20:32:36.813Z,95.50
2022-07-30T20:35:04.418Z,95.80
2022-07-30T20:37:32.937Z,96.00
2022-07-30T20:40:08.880Z,96.10
2022-07-30T20:42:38.977Z,96.50
2022-07-30T20:45:07.452Z,96.60
2022-07-30T20:47:38.766Z,96.70
2022-07-30T20:50:09.372Z,97.00
2022-07-30T20:52:39.473Z,97.90
2022-07-30T20:55:08.872Z,98.00
2022-07-30T20:57:56.743Z,98.30
2022-07-30T21:00:25.723Z,98.50
2022-07-30T21:02:53.087Z,98.70
2022-07-30T21:05:20.553Z,98.80
2022-07-30T21:07:47.942Z,98.80
2022-07-30T21:10:23.456Z,98.90
2022-07-30T21:12:53.258Z,99.00
2022-07-30T21:15:26.319Z,99.20
2022-07-30T21:17:54.071Z,99.20
2022-07-30T21:20:27.812Z,99.40
2022-07-30T21:22:56.531Z,99.60
2022-07-30T21:25:32.495Z,99.70
2022-07-30T21:28:02.897Z,99.90
2022-07-30T21:30:31.341Z,99.80
2022-07-30T21:33:00.141Z,99.90
2022-07-30T21:35:31.955Z,99.90
2022-07-30T21:37:59.926Z,99.90
2022-07-30T21:40:28.021Z,99.90
2022-07-30T21:42:56.448Z,99.90
2022-07-30T21:45:37.832Z,99.90
2022-07-30T21:48:07.634Z,99.90
2022-07-30T21:50:35.201Z,99.90
2022-07-30T21:53:02.569Z,99.90
2022-07-30T21:55:33.459Z,99.90
2022-07-30T21:58:25.960Z,99.90
2022-07-30T22:00:55.392Z,99.90
2022-07-30T22:04:05.285Z,99.90
2022-07-30T22:06:12.541Z,99.90
2022-07-30T22:08:40.855Z,99.90
2022-07-30T22:11:09.185Z,99.90
2022-07-30T22:13:53.671Z,99.90
2022-07-30T22:16:22.192Z,99.90
2022-07-30T22:18:50.560Z,99.90
2022-07-30T22:21:19.592Z,99.90
2022-07-30T22:23:54.804Z,99.90
2022-07-30T22:26:26.671Z,99.90
2022-07-30T22:28:54.571Z,99.90
2022-07-30T22:31:22.180Z,99.90
2022-07-30T22:33:50.914Z,99.90
2022-07-30T22:36:24.475Z,99.90
2022-07-30T22:38:58.438Z,99.90
2022-07-30T22:41:28.941Z,99.90
2022-07-30T22:43:56.574Z,99.90
2022-07-30T22:46:30.304Z,99.90
2022-07-30T22:48:59.159Z,99.90
2022-07-30T22:52:00.861Z,99.90
2022-07-30T22:54:14.404Z,99.90
2022-07-30T22:56:42.880Z,99.90
2022-07-30T22:59:13.777Z,99.90
2022-07-30T23:01:43.534Z,99.90
2022-07-30T23:04:11.209Z,99.90
2022-07-30T23:06:41.071Z,99.90
2022-07-30T23:09:10.041Z,99.90
2022-07-30T23:11:39.020Z,99.90
2022-07-30T23:12:16.491Z,91.10
2022-07-30T23:14:07.263Z,99.90
2022-07-30T23:16:34.917Z,99.90
2022-07-30T23:19:02.818Z,99.90
2022-07-30T23:21:30.224Z,99.90
2022-07-30T23:23:57.490Z,99.90
2022-07-30T23:26:24.873Z,99.90
2022-07-30T23:28:52.934Z,99.90
2022-07-30T23:31:23.942Z,99.90
2022-07-30T23:33:53.949Z,99.90
2022-07-30T23:36:21.554Z,99.90
2022-07-30T23:38:48.889Z,99.90
2022-07-30T23:41:29.860Z,99.90
2022-07-30T23:43:58.039Z,99.90
2022-07-30T23:46:25.430Z,99.90
2022-07-30T23:48:53.380Z,99.90
2022-07-30T23:51:20.818Z,99.90
2022-07-30T23:53:48.207Z,99.90
2022-07-30T23:56:16.346Z,99.90
2022-07-30T23:58:46.146Z,99.90
